sensor_id;sensor_type;location;lat;lon;timestamp;temperature;humidity
49777;DHT22;35673;51.482;7.436;2023-04-07T00:01:18;8.80;99.90
49777;DHT22;35673;51.482;7.436;2023-04-07T00:03:44;8.90;99.90
49777;DHT22;35673;51.482;7.436;2023-04-07T00:06:09;8.80;99.90
49777;DHT22;35673;51.482;7.436;2023-04-07T00:08:35;8.90;99.90
49777;DHT22;35673;51.482;7.436;2023-04-07T00:11:00;9.00;99.90
49777;DHT22;35673;51.482;7.436;2023-04-07T00:13:26;9.00;99.90
49777;DHT22;35673;51.482;7.436;2023-04-07T00:15:51;8.80;99.90
49777;DHT22;35673;51.482;7.436;2023-04-07T00:18:17;8.90;99.90
49777;DHT22;35673;51.482;7.436;2023-04-07T00:20:42;8.90;99.90
49777;DHT22;35673;51.482;7.436;2023-04-07T00:23:08;9.10;99.90
49777;DHT22;35673;51.482;7.436;2023-04-07T00:25:33;9.00;99.90
49777;DHT22;35673;51.482;7.436;2023-04-07T00:27:59;9.00;99.90
49777;DHT22;35673;51.482;7.436;2023-04-07T00:30:25;9.10;99.90
49777;DHT22;35673;51.482;7.436;2023-04-07T00:32:50;9.10;99.90
49777;DHT22;35673;51.482;7.436;2023-04-07T00:35:16;9.00;99.90
49777;DHT22;35673;51.482;7.436;2023-04-07T00:37:42;9.00;99.90
49777;DHT22;35673;51.482;7.436;2023-04-07T00:40:07;9.00;99.90
49777;DHT22;35673;51.482;7.436;2023-04-07T00:42:33;9.00;99.90
49777;DHT22;35673;51.482;7.436;2023-04-07T00:44:59;9.00;99.90
49777;DHT22;35673;51.482;7.436;2023-04-07T00:47:25;8.90;99.90
49777;DHT22;35673;51.482;7.436;2023-04-07T00:49:50;8.90;99.90
49777;DHT22;35673;51.482;7.436;2023-04-07T00:52:16;9.00;99.90
49777;DHT22;35673;51.482;7.436;2023-04-07T00:54:41;8.90;99.90
49777;DHT22;35673;51.482;7.436;2023-04-07T00:57:08;9.00;99.90
49777;DHT22;35673;51.482;7.436;2023-04-07T00:59:34;8.90;99.90
49777;DHT22;35673;51.482;7.436;2023-04-07T01:02:10;8.90;99.90
49777;DHT22;35673;51.482;7.436;2023-04-07T01:07:21;9.00;99.90
49777;DHT22;35673;51.482;7.436;2023-04-07T01:09:52;9.10;99.90
49777;DHT22;35673;51.482;7.436;2023-04-07T01:12:23;9.00;99.90
49777;DHT22;35673;51.482;7.436;2023-04-07T01:14:53;9.00;99.90
49777;DHT22;35673;51.482;7.436;2023-04-07T01:17:20;9.20;99.90
49777;DHT22;35673;51.482;7.436;2023-04-07T01:19:52;9.00;99.90
49777;DHT22;35673;51.482;7.436;2023-04-07T01:22:22;9.10;99.90
49777;DHT22;35673;51.482;7.436;2023-04-07T01:27:31;9.00;99.90
49777;DHT22;35673;51.482;7.436;2023-04-07T01:29:59;8.90;99.90
49777;DHT22;35673;51.482;7.436;2023-04-07T01:32:25;9.00;99.90
49777;DHT22;35673;51.482;7.436;2023-04-07T01:34:51;9.00;99.90
49777;DHT22;35673;51.482;7.436;2023-04-07T01:37:17;9.00;99.90
49777;DHT22;35673;51.482;7.436;2023-04-07T01:39:43;9.00;99.90
49777;DHT22;35673;51.482;7.436;2023-04-07T01:42:09;9.10;99.90
49777;DHT22;35673;51.482;7.436;2023-04-07T01:44:35;9.10;99.90
49777;DHT22;35673;51.482;7.436;2023-04-07T01:47:01;9.10;99.90
49777;DHT22;35673;51.482;7.436;2023-04-07T01:49:27;9.20;99.90
49777;DHT22;35673;51.482;7.436;2023-04-07T01:51:53;9.10;99.90
49777;DHT22;35673;51.482;7.436;2023-04-07T01:54:19;9.00;99.90
49777;DHT22;35673;51.482;7.436;2023-04-07T01:56:45;9.10;99.90
49777;DHT22;35673;51.482;7.436;2023-04-07T01:59:10;9.10;99.90
49777;DHT22;35673;51.482;7.436;2023-04-07T02:01:36;9.10;99.90
49777;DHT22;35673;51.482;7.436;2023-04-07T02:06:31;9.10;99.90
49777;DHT22;35673;51.482;7.436;2023-04-07T02:08:58;9.10;99.90
49777;DHT22;35673;51.482;7.436;2023-04-07T02:11:24;9.10;99.90
49777;DHT22;35673;51.482;7.436;2023-04-07T02:13:51;9.10;99.90
49777;DHT22;35673;51.482;7.436;2023-04-07T02:16:17;9.00;99.90
49777;DHT22;35673;51.482;7.436;2023-04-07T02:18:43;9.00;99.90
49777;DHT22;35673;51.482;7.436;2023-04-07T02:21:10;9.00;99.90
49777;DHT22;35673;51.482;7.436;2023-04-07T02:23:36;9.10;99.90
49777;DHT22;35673;51.482;7.436;2023-04-07T02:26:01;9.10;99.90
49777;DHT22;35673;51.482;7.436;2023-04-07T02:28:27;9.10;99.90
49777;DHT22;35673;51.482;7.436;2023-04-07T02:30:52;9.10;99.90
49777;DHT22;35673;51.482;7.436;2023-04-07T02:33:18;9.10;99.90
49777;DHT22;35673;51.482;7.436;2023-04-07T02:35:43;9.20;99.90
49777;DHT22;35673;51.482;7.436;2023-04-07T02:38:09;9.20;99.90
49777;DHT22;35673;51.482;7.436;2023-04-07T02:40:35;9.20;99.90
49777;DHT22;35673;51.482;7.436;2023-04-07T02:43:01;9.20;99.90
49777;DHT22;35673;51.482;7.436;2023-04-07T02:45:26;9.10;99.90
49777;DHT22;35673;51.482;7.436;2023-04-07T02:47:52;9.20;99.90
49777;DHT22;35673;51.482;7.436;2023-04-07T02:50:18;9.10;99.90
49777;DHT22;35673;51.482;7.436;2023-04-07T02:52:43;9.20;99.90
49777;DHT22;35673;51.482;7.436;2023-04-07T02:55:09;9.10;99.90
49777;DHT22;35673;51.482;7.436;2023-04-07T02:57:35;9.30;99.90
49777;DHT22;35673;51.482;7.436;2023-04-07T03:00:00;9.10;99.90
49777;DHT22;35673;51.482;7.436;2023-04-07T03:02:26;9.30;99.90
49777;DHT22;35673;51.482;7.436;2023-04-07T03:04:51;9.20;99.90
49777;DHT22;35673;51.482;7.436;2023-04-07T03:07:19;9.20;99.90
49777;DHT22;35673;51.482;7.436;2023-04-07T03:09:45;9.20;99.90
49777;DHT22;35673;51.482;7.436;2023-04-07T03:12:11;9.30;99.90
49777;DHT22;35673;51.482;7.436;2023-04-07T03:14:36;9.20;99.90
49777;DHT22;35673;51.482;7.436;2023-04-07T03:17:03;9.20;99.90
49777;DHT22;35673;51.482;7.436;2023-04-07T03:19:28;9.10;99.90
49777;DHT22;35673;51.482;7.436;2023-04-07T03:21:54;9.10;99.90
49777;DHT22;35673;51.482;7.436;2023-04-07T03:24:19;9.20;99.90
49777;DHT22;35673;51.482;7.436;2023-04-07T03:26:45;9.10;99.90
49777;DHT22;35673;51.482;7.436;2023-04-07T03:29:11;9.10;99.90
49777;DHT22;35673;51.482;7.436;2023-04-07T03:31:36;9.20;99.90
49777;DHT22;35673;51.482;7.436;2023-04-07T03:34:02;9.10;99.90
49777;DHT22;35673;51.482;7.436;2023-04-07T03:36:28;9.20;99.90
49777;DHT22;35673;51.482;7.436;2023-04-07T03:38:56;9.20;99.90
49777;DHT22;35673;51.482;7.436;2023-04-07T03:41:21;9.20;99.90
49777;DHT22;35673;51.482;7.436;2023-04-07T03:43:47;9.20;99.90
49777;DHT22;35673;51.482;7.436;2023-04-07T03:46:12;9.20;99.90
49777;DHT22;35673;51.482;7.436;2023-04-07T03:48:38;9.20;99.90
49777;DHT22;35673;51.482;7.436;2023-04-07T03:51:03;9.10;99.90
49777;DHT22;35673;51.482;7.436;2023-04-07T03:53:29;9.10;99.90
49777;DHT22;35673;51.482;7.436;2023-04-07T03:55:54;9.10;99.90
49777;DHT22;35673;51.482;7.436;2023-04-07T03:58:20;9.20;99.90
49777;DHT22;35673;51.482;7.436;2023-04-07T04:00:46;9.20;99.90
49777;DHT22;35673;51.482;7.436;2023-04-07T04:03:11;9.20;99.90
49777;DHT22;35673;51.482;7.436;2023-04-07T04:05:37;9.20;99.90
49777;DHT22;35673;51.482;7.436;2023-04-07T04:08:02;9.20;99.90
49777;DHT22;35673;51.482;7.436;2023-04-07T04:10:28;9.20;99.90
49777;DHT22;35673;51.482;7.436;2023-04-07T04:12:53;9.10;99.90
49777;DHT22;35673;51.482;7.436;2023-04-07T04:15:19;9.30;99.90
49777;DHT22;35673;51.482;7.436;2023-04-07T04:17:44;9.30;99.90
49777;DHT22;35673;51.482;7.436;2023-04-07T04:20:10;9.30;99.90
49777;DHT22;35673;51.482;7.436;2023-04-07T04:22:36;9.30;99.90
49777;DHT22;35673;51.482;7.436;2023-04-07T04:25:01;9.20;99.90
49777;DHT22;35673;51.482;7.436;2023-04-07T04:27:27;9.30;99.90
49777;DHT22;35673;51.482;7.436;2023-04-07T04:29:52;9.30;99.90
49777;DHT22;35673;51.482;7.436;2023-04-07T04:32:18;9.20;99.90
49777;DHT22;35673;51.482;7.436;2023-04-07T04:34:44;9.30;99.90
49777;DHT22;35673;51.482;7.436;2023-04-07T04:37:09;9.20;99.90
49777;DHT22;35673;51.482;7.436;2023-04-07T04:39:35;9.20;99.90
49777;DHT22;35673;51.482;7.436;2023-04-07T04:42:01;9.10;99.90
49777;DHT22;35673;51.482;7.436;2023-04-07T04:44:28;9.20;99.90
49777;DHT22;35673;51.482;7.436;2023-04-07T04:46:54;9.20;99.90
49777;DHT22;35673;51.482;7.436;2023-04-07T04:49:20;9.10;99.90
49777;DHT22;35673;51.482;7.436;2023-04-07T04:51:45;9.00;99.90
49777;DHT22;35673;51.482;7.436;2023-04-07T04:54:11;9.10;99.90
49777;DHT22;35673;51.482;7.436;2023-04-07T04:56:37;9.10;99.90
49777;DHT22;35673;51.482;7.436;2023-04-07T04:59:03;9.30;99.90
49777;DHT22;35673;51.482;7.436;2023-04-07T05:01:28;9.20;99.90
49777;DHT22;35673;51.482;7.436;2023-04-07T05:03:54;9.30;99.90
49777;DHT22;35673;51.482;7.436;2023-04-07T05:06:19;9.40;99.90
49777;DHT22;35673;51.482;7.436;2023-04-07T05:08:45;9.30;99.90
49777;DHT22;35673;51.482;7.436;2023-04-07T05:11:11;9.30;99.90
49777;DHT22;35673;51.482;7.436;2023-04-07T05:13:37;9.40;99.90
49777;DHT22;35673;51.482;7.436;2023-04-07T05:16:02;9.30;99.90
49777;DHT22;35673;51.482;7.436;2023-04-07T05:18:28;9.30;99.90
49777;DHT22;35673;51.482;7.436;2023-04-07T05:20:53;9.30;99.90
49777;DHT22;35673;51.482;7.436;2023-04-07T05:23:19;9.30;99.90
49777;DHT22;35673;51.482;7.436;2023-04-07T05:25:44;9.20;99.90
49777;DHT22;35673;51.482;7.436;2023-04-07T05:28:10;9.20;99.90
49777;DHT22;35673;51.482;7.436;2023-04-07T05:30:36;9.20;99.90
49777;DHT22;35673;51.482;7.436;2023-04-07T05:33:01;9.10;99.90
49777;DHT22;35673;51.482;7.436;2023-04-07T05:35:27;9.20;99.90
49777;DHT22;35673;51.482;7.436;2023-04-07T05:37:52;9.20;99.90
49777;DHT22;35673;51.482;7.436;2023-04-07T05:40:18;9.00;99.90
49777;DHT22;35673;51.482;7.436;2023-04-07T05:42:43;9.10;99.90
49777;DHT22;35673;51.482;7.436;2023-04-07T05:45:09;8.90;99.90
49777;DHT22;35673;51.482;7.436;2023-04-07T05:47:34;9.10;99.90
49777;DHT22;35673;51.482;7.436;2023-04-07T05:50:00;9.10;99.90
49777;DHT22;35673;51.482;7.436;2023-04-07T05:52:26;9.00;99.90
49777;DHT22;35673;51.482;7.436;2023-04-07T05:54:51;9.20;99.90
49777;DHT22;35673;51.482;7.436;2023-04-07T05:57:17;9.10;99.90
49777;DHT22;35673;51.482;7.436;2023-04-07T05:59:42;9.10;99.90
49777;DHT22;35673;51.482;7.436;2023-04-07T06:02:08;9.20;99.90
49777;DHT22;35673;51.482;7.436;2023-04-07T06:04:33;9.10;99.90
49777;DHT22;35673;51.482;7.436;2023-04-07T06:07:02;9.20;99.90
49777;DHT22;35673;51.482;7.436;2023-04-07T06:09:28;9.20;99.90
49777;DHT22;35673;51.482;7.436;2023-04-07T06:11:53;9.30;99.90
49777;DHT22;35673;51.482;7.436;2023-04-07T06:14:19;9.20;99.90
49777;DHT22;35673;51.482;7.436;2023-04-07T06:16:45;9.20;99.90
49777;DHT22;35673;51.482;7.436;2023-04-07T06:19:10;9.00;99.90
49777;DHT22;35673;51.482;7.436;2023-04-07T06:21:36;9.10;99.90
49777;DHT22;35673;51.482;7.436;2023-04-07T06:24:01;9.20;99.90
49777;DHT22;35673;51.482;7.436;2023-04-07T06:26:27;9.20;99.90
49777;DHT22;35673;51.482;7.436;2023-04-07T06:28:52;9.00;99.90
49777;DHT22;35673;51.482;7.436;2023-04-07T06:31:18;9.20;99.90
49777;DHT22;35673;51.482;7.436;2023-04-07T06:33:44;9.20;99.90
49777;DHT22;35673;51.482;7.436;2023-04-07T06:36:10;9.20;99.90
49777;DHT22;35673;51.482;7.436;2023-04-07T06:38:36;9.30;99.90
49777;DHT22;35673;51.482;7.436;2023-04-07T06:41:01;9.30;99.90
49777;DHT22;35673;51.482;7.436;2023-04-07T06:43:27;9.30;99.90
49777;DHT22;35673;51.482;7.436;2023-04-07T06:45:52;9.50;99.90
49777;DHT22;35673;51.482;7.436;2023-04-07T06:48:18;9.40;99.90
49777;DHT22;35673;51.482;7.436;2023-04-07T06:50:50;9.40;99.90
49777;DHT22;35673;51.482;7.436;2023-04-07T06:53:16;9.40;99.90
49777;DHT22;35673;51.482;7.436;2023-04-07T06:55:41;9.40;99.90
49777;DHT22;35673;51.482;7.436;2023-04-07T06:58:07;9.40;99.90
49777;DHT22;35673;51.482;7.436;2023-04-07T07:00:32;9.40;99.90
49777;DHT22;35673;51.482;7.436;2023-04-07T07:02:58;9.40;99.90
49777;DHT22;35673;51.482;7.436;2023-04-07T07:05:23;9.40;99.90
49777;DHT22;35673;51.482;7.436;2023-04-07T07:07:49;9.40;99.90
49777;DHT22;35673;51.482;7.436;2023-04-07T07:10:16;9.30;99.90
49777;DHT22;35673;51.482;7.436;2023-04-07T07:12:41;9.40;99.90
49777;DHT22;35673;51.482;7.436;2023-04-07T07:15:07;9.30;99.90
49777;DHT22;35673;51.482;7.436;2023-04-07T07:17:33;9.40;99.90
49777;DHT22;35673;51.482;7.436;2023-04-07T07:19:58;9.50;99.90
49777;DHT22;35673;51.482;7.436;2023-04-07T07:22:24;9.50;99.90
49777;DHT22;35673;51.482;7.436;2023-04-07T07:24:49;9.50;99.90
49777;DHT22;35673;51.482;7.436;2023-04-07T07:27:15;9.50;99.90
49777;DHT22;35673;51.482;7.436;2023-04-07T07:29:41;9.50;99.90
49777;DHT22;35673;51.482;7.436;2023-04-07T07:32:06;9.50;99.90
49777;DHT22;35673;51.482;7.436;2023-04-07T07:34:32;9.50;99.90
49777;DHT22;35673;51.482;7.436;2023-04-07T07:36:57;9.50;99.90
49777;DHT22;35673;51.482;7.436;2023-04-07T07:39:24;9.40;99.90
49777;DHT22;35673;51.482;7.436;2023-04-07T07:41:50;9.50;99.90
49777;DHT22;35673;51.482;7.436;2023-04-07T07:44:15;9.70;99.90
49777;DHT22;35673;51.482;7.436;2023-04-07T07:46:41;9.70;99.90
49777;DHT22;35673;51.482;7.436;2023-04-07T07:49:06;9.80;99.90
49777;DHT22;35673;51.482;7.436;2023-04-07T07:51:32;9.80;99.90
49777;DHT22;35673;51.482;7.436;2023-04-07T07:53:57;9.80;99.90
49777;DHT22;35673;51.482;7.436;2023-04-07T07:56:23;9.90;99.90
49777;DHT22;35673;51.482;7.436;2023-04-07T07:58:48;9.80;99.90
49777;DHT22;35673;51.482;7.436;2023-04-07T08:01:14;9.90;99.90
49777;DHT22;35673;51.482;7.436;2023-04-07T08:03:40;9.90;99.90
49777;DHT22;35673;51.482;7.436;2023-04-07T08:06:05;9.90;99.90
49777;DHT22;35673;51.482;7.436;2023-04-07T08:08:31;10.00;99.90
49777;DHT22;35673;51.482;7.436;2023-04-07T08:10:57;10.00;99.90
49777;DHT22;35673;51.482;7.436;2023-04-07T08:13:22;10.00;99.90
49777;DHT22;35673;51.482;7.436;2023-04-07T08:15:48;10.10;99.90
49777;DHT22;35673;51.482;7.436;2023-04-07T08:18:13;10.10;99.90
49777;DHT22;35673;51.482;7.436;2023-04-07T08:20:39;10.10;99.90
49777;DHT22;35673;51.482;7.436;2023-04-07T08:23:05;10.10;99.90
49777;DHT22;35673;51.482;7.436;2023-04-07T08:25:30;10.20;99.90
49777;DHT22;35673;51.482;7.436;2023-04-07T08:27:56;10.30;99.90
49777;DHT22;35673;51.482;7.436;2023-04-07T08:30:21;10.30;99.90
49777;DHT22;35673;51.482;7.436;2023-04-07T08:32:47;10.40;99.90
49777;DHT22;35673;51.482;7.436;2023-04-07T08:35:13;10.50;99.90
49777;DHT22;35673;51.482;7.436;2023-04-07T08:37:38;10.50;99.90
49777;DHT22;35673;51.482;7.436;2023-04-07T08:40:05;10.60;99.90
49777;DHT22;35673;51.482;7.436;2023-04-07T08:42:32;10.50;99.90
49777;DHT22;35673;51.482;7.436;2023-04-07T08:45:01;10.40;99.90
49777;DHT22;35673;51.482;7.436;2023-04-07T08:47:29;10.40;99.90
49777;DHT22;35673;51.482;7.436;2023-04-07T08:49:56;10.30;99.90
49777;DHT22;35673;51.482;7.436;2023-04-07T08:52:32;10.40;99.90
49777;DHT22;35673;51.482;7.436;2023-04-07T08:55:00;10.40;99.90
49777;DHT22;35673;51.482;7.436;2023-04-07T08:57:32;10.40;99.90
49777;DHT22;35673;51.482;7.436;2023-04-07T08:59:59;10.60;99.90
49777;DHT22;35673;51.482;7.436;2023-04-07T09:02:38;10.60;99.90
49777;DHT22;35673;51.482;7.436;2023-04-07T09:05:06;10.70;99.90
49777;DHT22;35673;51.482;7.436;2023-04-07T09:07:36;10.60;99.90
49777;DHT22;35673;51.482;7.436;2023-04-07T09:10:03;10.50;99.90
49777;DHT22;35673;51.482;7.436;2023-04-07T09:12:30;10.60;99.90
49777;DHT22;35673;51.482;7.436;2023-04-07T09:14:56;10.50;99.90
49777;DHT22;35673;51.482;7.436;2023-04-07T09:17:23;10.60;99.90
49777;DHT22;35673;51.482;7.436;2023-04-07T09:19:49;10.60;99.90
49777;DHT22;35673;51.482;7.436;2023-04-07T09:22:25;10.60;99.90
49777;DHT22;35673;51.482;7.436;2023-04-07T09:25:08;10.60;99.90
49777;DHT22;35673;51.482;7.436;2023-04-07T09:27:34;10.60;99.90
49777;DHT22;35673;51.482;7.436;2023-04-07T09:30:09;10.60;99.90
49777;DHT22;35673;51.482;7.436;2023-04-07T09:32:36;10.60;99.90
49777;DHT22;35673;51.482;7.436;2023-04-07T09:35:05;10.60;99.90
49777;DHT22;35673;51.482;7.436;2023-04-07T09:37:31;10.60;99.90
49777;DHT22;35673;51.482;7.436;2023-04-07T09:39:57;10.60;99.90
49777;DHT22;35673;51.482;7.436;2023-04-07T09:42:23;10.60;99.90
49777;DHT22;35673;51.482;7.436;2023-04-07T09:44:51;10.50;99.90
49777;DHT22;35673;51.482;7.436;2023-04-07T09:47:17;10.60;99.90
49777;DHT22;35673;51.482;7.436;2023-04-07T09:49:50;10.60;99.90
49777;DHT22;35673;51.482;7.436;2023-04-07T09:52:20;10.60;99.90
49777;DHT22;35673;51.482;7.436;2023-04-07T09:54:46;10.50;99.90
49777;DHT22;35673;51.482;7.436;2023-04-07T09:57:12;10.50;99.90
49777;DHT22;35673;51.482;7.436;2023-04-07T09:59:39;10.50;99.90
49777;DHT22;35673;51.482;7.436;2023-04-07T10:02:07;10.50;99.90
49777;DHT22;35673;51.482;7.436;2023-04-07T10:04:32;10.50;99.90
49777;DHT22;35673;51.482;7.436;2023-04-07T10:06:58;10.50;99.90
49777;DHT22;35673;51.482;7.436;2023-04-07T10:09:26;10.40;99.90
49777;DHT22;35673;51.482;7.436;2023-04-07T10:11:52;10.40;99.90
49777;DHT22;35673;51.482;7.436;2023-04-07T10:14:19;10.40;99.90
49777;DHT22;35673;51.482;7.436;2023-04-07T10:16:46;10.40;99.90
49777;DHT22;35673;51.482;7.436;2023-04-07T10:19:11;10.40;99.90
49777;DHT22;35673;51.482;7.436;2023-04-07T10:21:38;10.50;99.90
49777;DHT22;35673;51.482;7.436;2023-04-07T10:26:49;10.50;99.90
49777;DHT22;35673;51.482;7.436;2023-04-07T10:29:16;10.50;99.90
49777;DHT22;35673;51.482;7.436;2023-04-07T10:31:42;10.50;99.90
49777;DHT22;35673;51.482;7.436;2023-04-07T10:34:08;10.50;99.90
49777;DHT22;35673;51.482;7.436;2023-04-07T10:36:33;10.50;99.90
49777;DHT22;35673;51.482;7.436;2023-04-07T10:41:40;10.50;99.90
49777;DHT22;35673;51.482;7.436;2023-04-07T10:44:06;10.60;99.90
49777;DHT22;35673;51.482;7.436;2023-04-07T10:47:14;10.60;99.90
49777;DHT22;35673;51.482;7.436;2023-04-07T10:49:21;10.70;99.90
49777;DHT22;35673;51.482;7.436;2023-04-07T10:54:31;10.70;99.90
49777;DHT22;35673;51.482;7.436;2023-04-07T10:59:28;10.70;99.90
49777;DHT22;35673;51.482;7.436;2023-04-07T11:04:42;10.80;99.90
49777;DHT22;35673;51.482;7.436;2023-04-07T11:07:08;10.70;99.90
49777;DHT22;35673;51.482;7.436;2023-04-07T11:09:34;10.80;99.90
49777;DHT22;35673;51.482;7.436;2023-04-07T11:11:59;10.90;99.90
49777;DHT22;35673;51.482;7.436;2023-04-07T11:14:28;11.00;99.90
49777;DHT22;35673;51.482;7.436;2023-04-07T11:16:54;10.90;99.90
49777;DHT22;35673;51.482;7.436;2023-04-07T11:19:19;10.90;99.90
49777;DHT22;35673;51.482;7.436;2023-04-07T11:21:45;10.80;99.90
49777;DHT22;35673;51.482;7.436;2023-04-07T11:26:55;10.80;99.90
49777;DHT22;35673;51.482;7.436;2023-04-07T11:29:26;10.80;99.90
49777;DHT22;35673;51.482;7.436;2023-04-07T11:31:52;10.90;99.90
49777;DHT22;35673;51.482;7.436;2023-04-07T11:34:18;10.90;99.90
49777;DHT22;35673;51.482;7.436;2023-04-07T11:36:43;10.90;99.90
49777;DHT22;35673;51.482;7.436;2023-04-07T11:39:18;10.90;99.90
49777;DHT22;35673;51.482;7.436;2023-04-07T11:41:47;10.90;99.90
49777;DHT22;35673;51.482;7.436;2023-04-07T11:44:13;11.00;99.90
49777;DHT22;35673;51.482;7.436;2023-04-07T11:46:57;11.00;99.90
49777;DHT22;35673;51.482;7.436;2023-04-07T11:49:24;11.10;99.90
49777;DHT22;35673;51.482;7.436;2023-04-07T11:52:00;11.30;99.90
49777;DHT22;35673;51.482;7.436;2023-04-07T11:54:26;11.40;99.90
49777;DHT22;35673;51.482;7.436;2023-04-07T11:56:51;11.40;99.90
49777;DHT22;35673;51.482;7.436;2023-04-07T11:59:20;11.30;99.90
49777;DHT22;35673;51.482;7.436;2023-04-07T12:01:47;11.30;99.90
49777;DHT22;35673;51.482;7.436;2023-04-07T12:04:13;11.30;99.90
49777;DHT22;35673;51.482;7.436;2023-04-07T12:06:42;11.30;99.90
49777;DHT22;35673;51.482;7.436;2023-04-07T12:09:08;11.30;99.90
49777;DHT22;35673;51.482;7.436;2023-04-07T12:11:34;11.30;99.90
49777;DHT22;35673;51.482;7.436;2023-04-07T12:14:00;11.30;99.90
49777;DHT22;35673;51.482;7.436;2023-04-07T12:16:29;11.20;99.90
49777;DHT22;35673;51.482;7.436;2023-04-07T12:18:54;11.20;99.90
49777;DHT22;35673;51.482;7.436;2023-04-07T12:21:20;11.30;99.90
49777;DHT22;35673;51.482;7.436;2023-04-07T12:23:46;11.20;99.90
49777;DHT22;35673;51.482;7.436;2023-04-07T12:26:11;11.20;99.90
49777;DHT22;35673;51.482;7.436;2023-04-07T12:28:37;11.20;99.90
49777;DHT22;35673;51.482;7.436;2023-04-07T12:31:03;11.10;99.90
49777;DHT22;35673;51.482;7.436;2023-04-07T12:33:29;11.00;99.90
49777;DHT22;35673;51.482;7.436;2023-04-07T12:35:55;10.90;99.90
49777;DHT22;35673;51.482;7.436;2023-04-07T12:38:21;10.90;99.90
49777;DHT22;35673;51.482;7.436;2023-04-07T12:40:47;11.00;99.90
49777;DHT22;35673;51.482;7.436;2023-04-07T12:43:12;11.00;99.90
49777;DHT22;35673;51.482;7.436;2023-04-07T12:45:38;11.00;99.90
49777;DHT22;35673;51.482;7.436;2023-04-07T12:48:03;11.10;99.90
49777;DHT22;35673;51.482;7.436;2023-04-07T12:50:29;11.10;99.90
49777;DHT22;35673;51.482;7.436;2023-04-07T12:52:55;11.10;99.90
49777;DHT22;35673;51.482;7.436;2023-04-07T12:55:23;11.20;99.90
49777;DHT22;35673;51.482;7.436;2023-04-07T12:57:48;11.20;99.90
49777;DHT22;35673;51.482;7.436;2023-04-07T13:00:14;11.30;99.90
49777;DHT22;35673;51.482;7.436;2023-04-07T13:02:40;11.20;99.90
49777;DHT22;35673;51.482;7.436;2023-04-07T13:05:06;11.30;99.90
49777;DHT22;35673;51.482;7.436;2023-04-07T13:07:32;11.20;99.90
49777;DHT22;35673;51.482;7.436;2023-04-07T13:09:59;11.20;99.90
49777;DHT22;35673;51.482;7.436;2023-04-07T13:12:24;11.10;99.90
49777;DHT22;35673;51.482;7.436;2023-04-07T13:14:50;11.00;99.90
49777;DHT22;35673;51.482;7.436;2023-04-07T13:17:15;10.90;99.90
49777;DHT22;35673;51.482;7.436;2023-04-07T13:19:42;10.80;99.90
49777;DHT22;35673;51.482;7.436;2023-04-07T13:22:11;10.90;99.90
49777;DHT22;35673;51.482;7.436;2023-04-07T13:24:36;10.90;99.90
49777;DHT22;35673;51.482;7.436;2023-04-07T13:27:02;11.00;99.90
49777;DHT22;35673;51.482;7.436;2023-04-07T13:29:27;11.00;99.90
49777;DHT22;35673;51.482;7.436;2023-04-07T13:32:02;11.00;99.90
49777;DHT22;35673;51.482;7.436;2023-04-07T13:34:28;11.10;99.90
49777;DHT22;35673;51.482;7.436;2023-04-07T13:36:53;11.10;99.90
49777;DHT22;35673;51.482;7.436;2023-04-07T13:39:19;11.20;99.90
49777;DHT22;35673;51.482;7.436;2023-04-07T13:41:45;11.20;99.90
49777;DHT22;35673;51.482;7.436;2023-04-07T13:44:10;11.20;99.90
49777;DHT22;35673;51.482;7.436;2023-04-07T13:46:36;11.30;99.90
49777;DHT22;35673;51.482;7.436;2023-04-07T13:49:02;11.20;99.90
49777;DHT22;35673;51.482;7.436;2023-04-07T13:51:27;11.30;99.90
49777;DHT22;35673;51.482;7.436;2023-04-07T13:53:53;11.30;99.90
49777;DHT22;35673;51.482;7.436;2023-04-07T13:56:19;11.20;99.90
49777;DHT22;35673;51.482;7.436;2023-04-07T13:58:46;11.20;99.90
49777;DHT22;35673;51.482;7.436;2023-04-07T14:01:12;11.10;99.90
49777;DHT22;35673;51.482;7.436;2023-04-07T14:03:37;11.10;99.90
49777;DHT22;35673;51.482;7.436;2023-04-07T14:06:03;11.10;99.90
49777;DHT22;35673;51.482;7.436;2023-04-07T14:08:29;11.10;99.90
49777;DHT22;35673;51.482;7.436;2023-04-07T14:10:54;11.20;99.90
49777;DHT22;35673;51.482;7.436;2023-04-07T14:13:20;11.30;99.90
49777;DHT22;35673;51.482;7.436;2023-04-07T14:15:45;11.40;99.90
49777;DHT22;35673;51.482;7.436;2023-04-07T14:18:11;11.50;99.90
49777;DHT22;35673;51.482;7.436;2023-04-07T14:20:36;11.50;99.90
49777;DHT22;35673;51.482;7.436;2023-04-07T14:23:02;11.50;99.90
49777;DHT22;35673;51.482;7.436;2023-04-07T14:25:27;11.40;99.90
49777;DHT22;35673;51.482;7.436;2023-04-07T14:27:53;11.50;99.90
49777;DHT22;35673;51.482;7.436;2023-04-07T14:30:19;11.40;99.90
49777;DHT22;35673;51.482;7.436;2023-04-07T14:32:44;11.40;99.90
49777;DHT22;35673;51.482;7.436;2023-04-07T14:35:10;11.30;99.90
49777;DHT22;35673;51.482;7.436;2023-04-07T14:37:36;11.20;99.90
49777;DHT22;35673;51.482;7.436;2023-04-07T14:40:02;11.30;99.90
49777;DHT22;35673;51.482;7.436;2023-04-07T14:42:28;11.30;99.90
49777;DHT22;35673;51.482;7.436;2023-04-07T14:44:54;11.40;99.90
49777;DHT22;35673;51.482;7.436;2023-04-07T14:47:20;11.30;99.90
49777;DHT22;35673;51.482;7.436;2023-04-07T14:49:45;11.30;99.90
49777;DHT22;35673;51.482;7.436;2023-04-07T14:52:11;11.30;99.90
49777;DHT22;35673;51.482;7.436;2023-04-07T14:54:37;11.30;99.90
49777;DHT22;35673;51.482;7.436;2023-04-07T14:57:04;11.30;99.90
49777;DHT22;35673;51.482;7.436;2023-04-07T14:59:29;11.20;99.90
49777;DHT22;35673;51.482;7.436;2023-04-07T15:01:55;11.20;99.90
49777;DHT22;35673;51.482;7.436;2023-04-07T15:04:20;11.30;99.90
49777;DHT22;35673;51.482;7.436;2023-04-07T15:06:46;11.40;99.90
49777;DHT22;35673;51.482;7.436;2023-04-07T15:09:11;11.40;99.90
49777;DHT22;35673;51.482;7.436;2023-04-07T15:11:37;11.30;99.90
49777;DHT22;35673;51.482;7.436;2023-04-07T15:14:02;11.30;99.90
49777;DHT22;35673;51.482;7.436;2023-04-07T15:16:30;11.40;99.90
49777;DHT22;35673;51.482;7.436;2023-04-07T15:18:55;11.30;99.90
49777;DHT22;35673;51.482;7.436;2023-04-07T15:21:21;11.40;99.90
49777;DHT22;35673;51.482;7.436;2023-04-07T15:23:46;11.40;99.90
49777;DHT22;35673;51.482;7.436;2023-04-07T15:26:12;11.40;99.90
49777;DHT22;35673;51.482;7.436;2023-04-07T15:28:38;11.40;99.90
49777;DHT22;35673;51.482;7.436;2023-04-07T15:31:03;11.30;99.90
49777;DHT22;35673;51.482;7.436;2023-04-07T15:33:37;11.30;99.90
49777;DHT22;35673;51.482;7.436;2023-04-07T15:36:04;11.30;99.90
49777;DHT22;35673;51.482;7.436;2023-04-07T15:38:29;11.10;99.90
49777;DHT22;35673;51.482;7.436;2023-04-07T15:40:55;11.20;99.90
49777;DHT22;35673;51.482;7.436;2023-04-07T15:43:21;11.30;99.90
49777;DHT22;35673;51.482;7.436;2023-04-07T15:45:46;11.40;99.90
49777;DHT22;35673;51.482;7.436;2023-04-07T15:48:12;11.40;99.90
49777;DHT22;35673;51.482;7.436;2023-04-07T15:50:38;11.40;99.90
49777;DHT22;35673;51.482;7.436;2023-04-07T15:53:04;11.50;99.90
49777;DHT22;35673;51.482;7.436;2023-04-07T15:55:31;11.50;99.90